createdAt,value
2023-08-20T00:00:08.604Z,20.12
2023-08-20T00:02:42.187Z,19.96
2023-08-20T00:05:09.447Z,19.89
2023-08-20T00:07:37.038Z,19.97
2023-08-20T00:10:03.837Z,20.01
2023-08-20T00:12:30.995Z,20.04
2023-08-20T00:15:03.199Z,20.10
2023-08-20T00:17:30.501Z,20.11
2023-08-20T00:19:57.309Z,20.05
2023-08-20T00:22:25.251Z,19.88
2023-08-20T00:24:53.148Z,19.81
2023-08-20T00:27:19.919Z,19.83
2023-08-20T00:29:46.619Z,19.75
2023-08-20T00:32:13.245Z,19.85
2023-08-20T00:34:39.751Z,19.86
2023-08-20T00:37:06.269Z,19.90
2023-08-20T00:39:33.164Z,19.87
2023-08-20T00:41:59.666Z,19.91
2023-08-20T00:44:26.197Z,19.95
2023-08-20T00:46:52.746Z,19.96
2023-08-20T00:49:19.713Z,19.89
2023-08-20T00:51:46.626Z,19.91
2023-08-20T00:54:13.414Z,19.95
2023-08-20T00:56:39.960Z,19.87
2023-08-20T00:59:06.962Z,19.88
2023-08-20T01:01:33.500Z,19.87
2023-08-20T01:04:00.020Z,19.96
2023-08-20T01:06:37.522Z,19.85
2023-08-20T01:09:13.952Z,19.78
2023-08-20T01:11:45.208Z,19.61
2023-08-20T01:14:17.752Z,19.54
2023-08-20T01:16:46.068Z,19.62
2023-08-20T01:19:18.169Z,19.55
2023-08-20T01:22:23.690Z,19.42
2023-08-20T01:25:05.569Z,19.33
2023-08-20T01:27:44.569Z,19.36
2023-08-20T01:30:11.912Z,19.45
2023-08-20T01:32:39.690Z,19.38
2023-08-20T01:35:07.193Z,19.30
2023-08-20T01:37:33.929Z,19.24
2023-08-20T01:40:00.634Z,19.14
2023-08-20T01:42:27.185Z,19.06
2023-08-20T01:44:53.626Z,19.02
2023-08-20T01:47:20.141Z,18.98
2023-08-20T01:49:46.625Z,18.93
2023-08-20T01:52:13.137Z,18.89
2023-08-20T01:54:39.607Z,18.93
2023-08-20T01:57:06.138Z,18.87
2023-08-20T01:59:33.188Z,18.87
2023-08-20T02:01:59.765Z,18.78
2023-08-20T02:04:26.320Z,18.75
2023-08-20T02:06:53.045Z,18.68
2023-08-20T02:09:19.545Z,18.89
2023-08-20T02:11:46.239Z,18.83
2023-08-20T02:14:12.735Z,18.98
2023-08-20T02:16:39.235Z,19.15
2023-08-20T02:19:05.725Z,19.15
2023-08-20T02:21:32.790Z,19.11
2023-08-20T02:24:02.250Z,19.13
2023-08-20T02:26:28.792Z,18.99
2023-08-20T02:28:55.284Z,19.04
2023-08-20T02:31:21.797Z,19.08
2023-08-20T02:33:50.448Z,19.10
2023-08-20T02:36:17.022Z,19.12
2023-08-20T02:38:43.490Z,19.10
2023-08-20T02:41:09.937Z,19.03
2023-08-20T02:43:36.435Z,19.02
2023-08-20T02:46:02.973Z,18.98
2023-08-20T02:48:30.397Z,19.00
2023-08-20T02:50:57.459Z,19.06
2023-08-20T02:53:24.016Z,19.07
2023-08-20T02:55:50.486Z,19.00
2023-08-20T02:58:17.001Z,19.08
2023-08-20T03:00:43.523Z,19.22
2023-08-20T03:03:10.054Z,19.07
2023-08-20T03:05:39.160Z,19.05
2023-08-20T03:08:05.908Z,19.01
2023-08-20T03:10:33.009Z,19.05
2023-08-20T03:13:00.554Z,19.07
2023-08-20T03:15:27.034Z,19.08
2023-08-20T03:17:53.727Z,18.97
2023-08-20T03:20:20.241Z,19.08
2023-08-20T03:22:46.803Z,19.09
2023-08-20T03:25:13.360Z,19.16
2023-08-20T03:27:39.971Z,19.16
2023-08-20T03:30:07.286Z,19.27
2023-08-20T03:32:33.929Z,19.19
2023-08-20T03:35:00.751Z,19.10
2023-08-20T03:37:27.669Z,19.15
2023-08-20T03:39:54.186Z,18.98
2023-08-20T03:42:20.890Z,18.98
2023-08-20T03:44:49.205Z,19.00
2023-08-20T03:47:16.886Z,19.01
2023-08-20T03:49:43.392Z,19.01
2023-08-20T03:52:09.894Z,19.08
2023-08-20T03:54:37.008Z,18.96
2023-08-20T03:57:04.110Z,18.88
2023-08-20T03:59:31.381Z,18.93
2023-08-20T04:01:58.391Z,18.89
2023-08-20T04:04:25.790Z,18.92
2023-08-20T04:06:52.423Z,18.98
2023-08-20T04:09:18.932Z,18.97
2023-08-20T04:11:45.743Z,19.04
2023-08-20T04:14:12.229Z,19.08
2023-08-20T04:16:38.773Z,19.13
2023-08-20T04:19:05.597Z,19.20
2023-08-20T04:21:32.648Z,19.17
2023-08-20T04:23:59.831Z,19.08
2023-08-20T04:26:26.567Z,19.20
2023-08-20T04:28:53.068Z,19.14
2023-08-20T04:31:19.923Z,19.11
2023-08-20T04:33:53.208Z,19.08
2023-08-20T04:36:23.846Z,19.05
2023-08-20T04:38:50.323Z,19.00
2023-08-20T04:41:16.902Z,19.10
2023-08-20T04:43:44.187Z,19.16
2023-08-20T04:46:11.258Z,19.14
2023-08-20T04:48:37.817Z,19.16
2023-08-20T04:51:04.389Z,19.17
2023-08-20T04:53:31.142Z,18.91
2023-08-20T04:55:59.111Z,19.16
2023-08-20T04:58:25.666Z,19.17
2023-08-20T05:00:52.295Z,19.20
2023-08-20T05:03:19.618Z,19.23
2023-08-20T05:05:50.303Z,19.22
2023-08-20T05:08:17.533Z,19.22
2023-08-20T05:10:44.143Z,19.26
2023-08-20T05:13:12.225Z,19.24
2023-08-20T05:15:38.724Z,19.20
2023-08-20T05:18:05.433Z,19.26
2023-08-20T05:20:32.429Z,19.16
2023-08-20T05:22:59.258Z,19.21
2023-08-20T05:25:26.200Z,19.24
2023-08-20T05:27:52.683Z,19.19
2023-08-20T05:30:19.199Z,19.24
2023-08-20T05:32:45.665Z,19.28
2023-08-20T05:35:14.302Z,19.37
2023-08-20T05:37:42.320Z,19.38
2023-08-20T05:40:09.561Z,19.38
2023-08-20T05:42:36.681Z,19.37
2023-08-20T05:45:06.677Z,19.43
2023-08-20T05:47:33.846Z,19.33
2023-08-20T05:50:01.077Z,19.37
2023-08-20T05:52:27.901Z,19.38
2023-08-20T05:54:54.344Z,19.40
2023-08-20T05:57:22.096Z,19.43
2023-08-20T05:59:48.965Z,19.54
2023-08-20T06:02:19.433Z,19.73
2023-08-20T06:04:46.002Z,19.94
2023-08-20T06:07:12.816Z,19.98
2023-08-20T06:09:40.028Z,20.20
2023-08-20T06:12:07.250Z,20.24
2023-08-20T06:14:33.707Z,20.49
2023-08-20T06:17:00.241Z,20.49
2023-08-20T06:19:27.112Z,20.59
2023-08-20T06:21:53.582Z,20.64
2023-08-20T06:24:20.092Z,20.77
2023-08-20T06:26:47.048Z,21.01
2023-08-20T06:29:13.575Z,21.19
2023-08-20T06:31:40.626Z,21.32
2023-08-20T06:34:07.320Z,21.42
2023-08-20T06:36:33.787Z,21.34
2023-08-20T06:39:00.236Z,21.22
2023-08-20T06:41:26.726Z,21.14
2023-08-20T06:43:53.247Z,21.20
2023-08-20T06:46:20.089Z,21.44
2023-08-20T06:48:46.631Z,21.45
2023-08-20T06:51:16.570Z,21.45
2023-08-20T06:53:43.470Z,21.35
2023-08-20T06:56:10.522Z,21.18
2023-08-20T06:58:37.280Z,21.23
2023-08-20T07:01:03.827Z,21.09
2023-08-20T07:03:30.348Z,21.15
2023-08-20T07:05:56.801Z,21.33
2023-08-20T07:08:23.310Z,21.40
2023-08-20T07:10:49.802Z,21.51
2023-08-20T07:13:16.280Z,21.60
2023-08-20T07:15:43.549Z,21.59
2023-08-20T07:18:10.251Z,21.54
2023-08-20T07:20:36.796Z,21.66
2023-08-20T07:23:05.199Z,21.64
2023-08-20T07:25:32.149Z,21.77
2023-08-20T07:27:58.605Z,22.05
2023-08-20T07:30:25.077Z,22.01
2023-08-20T07:32:51.722Z,21.98
2023-08-20T07:35:18.339Z,21.88
2023-08-20T07:37:44.850Z,21.88
2023-08-20T07:40:16.615Z,21.88
2023-08-20T07:42:43.700Z,21.95
2023-08-20T07:45:10.900Z,22.12
2023-08-20T07:47:38.475Z,22.29
2023-08-20T07:50:06.385Z,22.28
2023-08-20T07:52:33.877Z,22.27
2023-08-20T07:55:00.589Z,22.50
2023-08-20T07:57:27.090Z,22.64
2023-08-20T07:59:53.806Z,22.65
2023-08-20T08:02:20.260Z,22.86
2023-08-20T08:04:46.753Z,22.87
2023-08-20T08:07:13.253Z,22.96
2023-08-20T08:09:39.887Z,22.96
2023-08-20T08:12:06.471Z,23.06
2023-08-20T08:14:32.918Z,23.26
2023-08-20T08:16:59.638Z,23.32
2023-08-20T08:19:26.272Z,23.51
2023-08-20T08:21:52.798Z,23.56
2023-08-20T08:24:19.415Z,23.84
2023-08-20T08:26:46.063Z,23.68
2023-08-20T08:29:12.545Z,23.86
2023-08-20T08:31:39.127Z,23.98
2023-08-20T08:34:06.025Z,23.77
2023-08-20T08:36:32.622Z,24.07
2023-08-20T08:38:59.142Z,24.04
2023-08-20T08:41:27.298Z,24.18
2023-08-20T08:43:56.326Z,24.24
2023-08-20T08:46:24.593Z,24.34
2023-08-20T08:48:52.422Z,24.56
2023-08-20T08:51:19.500Z,24.80
2023-08-20T08:53:47.574Z,24.81
2023-08-20T08:56:14.168Z,24.58
2023-08-20T08:58:40.655Z,24.66
2023-08-20T09:01:07.470Z,24.83
2023-08-20T09:03:34.225Z,24.86
2023-08-20T09:06:03.032Z,24.82
2023-08-20T09:08:31.685Z,25.09
2023-08-20T09:10:59.788Z,24.87
2023-08-20T09:13:33.474Z,25.01
2023-08-20T09:16:00.269Z,24.85
2023-08-20T09:18:26.758Z,24.66
2023-08-20T09:20:53.297Z,25.04
2023-08-20T09:23:19.787Z,25.07
2023-08-20T09:25:46.338Z,25.15
2023-08-20T09:28:13.051Z,25.12
2023-08-20T09:30:39.800Z,25.16
2023-08-20T09:33:13.146Z,24.97
2023-08-20T09:35:39.725Z,24.94
2023-08-20T09:38:06.389Z,25.40
2023-08-20T09:40:32.969Z,25.42
2023-08-20T09:43:02.184Z,25.38
2023-08-20T09:45:29.940Z,25.54
2023-08-20T09:47:58.759Z,25.82
2023-08-20T09:50:27.053Z,25.50
2023-08-20T09:53:07.441Z,25.80
2023-08-20T09:55:36.685Z,26.03
2023-08-20T09:58:03.866Z,25.52
2023-08-20T10:00:31.555Z,26.04
2023-08-20T10:02:58.711Z,26.17
2023-08-20T10:05:26.251Z,25.95
2023-08-20T10:07:57.577Z,26.11
2023-08-20T10:10:24.366Z,26.03
2023-08-20T10:12:51.414Z,26.41
2023-08-20T10:15:18.166Z,26.39
2023-08-20T10:17:46.211Z,26.57
2023-08-20T10:20:15.697Z,26.41
2023-08-20T10:22:44.725Z,26.46
2023-08-20T10:25:31.763Z,26.57
2023-08-20T10:28:19.531Z,26.67
2023-08-20T10:31:06.477Z,26.76
2023-08-20T10:33:38.781Z,26.83
2023-08-20T10:36:10.947Z,26.89
2023-08-20T10:38:38.750Z,26.87
2023-08-20T10:41:09.601Z,26.88
2023-08-20T10:43:39.159Z,26.83
2023-08-20T10:46:20.062Z,26.36
2023-08-20T10:48:58.035Z,26.93
2023-08-20T10:51:30.089Z,27.20
2023-08-20T10:54:02.801Z,27.45
2023-08-20T10:56:43.217Z,27.35
2023-08-20T10:59:14.485Z,26.68
2023-08-20T11:01:44.818Z,26.06
2023-08-20T11:04:11.479Z,25.85
2023-08-20T11:06:39.563Z,26.23
2023-08-20T11:09:06.464Z,26.88
2023-08-20T11:11:33.513Z,27.08
2023-08-20T11:14:07.835Z,26.52
2023-08-20T11:16:36.052Z,26.52
2023-08-20T11:19:02.833Z,26.76
2023-08-20T11:21:29.565Z,26.21
2023-08-20T11:23:56.179Z,26.06
2023-08-20T11:26:22.647Z,25.87
2023-08-20T11:28:49.104Z,26.39
2023-08-20T11:31:15.935Z,26.63
2023-08-20T11:33:42.467Z,27.31
2023-08-20T11:36:09.037Z,27.76
2023-08-20T11:38:35.544Z,27.93
2023-08-20T11:41:02.734Z,28.08
2023-08-20T11:43:29.779Z,28.26
2023-08-20T11:45:56.952Z,28.68
2023-08-20T11:48:23.827Z,28.27
2023-08-20T11:50:53.452Z,28.56
2023-08-20T11:53:23.170Z,28.76
2023-08-20T11:55:49.891Z,28.28
2023-08-20T11:58:16.492Z,27.60
2023-08-20T12:00:43.348Z,27.53
2023-08-20T12:03:10.595Z,27.84
2023-08-20T12:05:37.188Z,28.28
2023-08-20T12:08:05.345Z,28.66
2023-08-20T12:10:33.546Z,28.84
2023-08-20T12:13:00.074Z,29.02
2023-08-20T12:15:26.856Z,29.53
2023-08-20T12:18:04.313Z,29.57
2023-08-20T12:20:32.441Z,28.82
2023-08-20T12:23:04.612Z,28.80
2023-08-20T12:25:33.310Z,28.59
2023-08-20T12:28:01.545Z,28.34
2023-08-20T12:30:28.127Z,28.90
2023-08-20T12:32:54.916Z,29.01
2023-08-20T12:35:21.529Z,29.07
2023-08-20T12:37:48.035Z,29.42
2023-08-20T12:40:15.260Z,29.70
2023-08-20T12:42:43.785Z,29.36
2023-08-20T12:45:11.314Z,29.55
2023-08-20T12:47:38.099Z,29.37
2023-08-20T12:50:05.470Z,29.85
2023-08-20T12:52:34.253Z,30.01
2023-08-20T12:55:00.997Z,29.87
2023-08-20T12:57:27.543Z,29.84
2023-08-20T12:59:54.023Z,30.13
2023-08-20T13:02:20.542Z,30.34
2023-08-20T13:04:47.394Z,30.51
2023-08-20T13:07:14.262Z,30.23
2023-08-20T13:09:41.316Z,29.67
2023-08-20T13:12:11.156Z,29.89
2023-08-20T13:14:37.904Z,30.05
2023-08-20T13:17:04.668Z,30.28
2023-08-20T13:19:31.118Z,30.55
2023-08-20T13:21:57.608Z,30.57
2023-08-20T13:24:24.087Z,30.18
2023-08-20T13:26:52.221Z,30.75
2023-08-20T13:29:18.701Z,30.42
2023-08-20T13:31:45.202Z,30.67
2023-08-20T13:34:11.679Z,30.82
2023-08-20T13:36:39.578Z,30.80
2023-08-20T13:39:06.129Z,31.09
2023-08-20T13:41:32.829Z,30.67
2023-08-20T13:44:02.435Z,30.82
2023-08-20T13:46:28.952Z,30.25
2023-08-20T13:48:57.659Z,30.18
2023-08-20T13:51:24.150Z,30.71
2023-08-20T13:53:50.613Z,31.00
2023-08-20T13:56:17.106Z,31.23
2023-08-20T13:58:43.578Z,31.06
2023-08-20T14:01:10.486Z,31.65
2023-08-20T14:03:37.141Z,31.84
2023-08-20T14:06:03.673Z,31.62
2023-08-20T14:08:30.126Z,31.36
2023-08-20T14:10:56.683Z,30.95
2023-08-20T14:13:23.173Z,30.63
2023-08-20T14:15:49.784Z,31.37
2023-08-20T14:18:16.909Z,32.45
2023-08-20T14:20:43.941Z,32.08
2023-08-20T14:23:10.510Z,32.25
2023-08-20T14:25:37.697Z,32.28
2023-08-20T14:28:04.362Z,32.31
2023-08-20T14:30:30.860Z,32.66
2023-08-20T14:32:57.332Z,32.73
2023-08-20T14:35:24.095Z,33.01
2023-08-20T14:37:53.829Z,32.97
2023-08-20T14:40:20.773Z,33.64
2023-08-20T14:42:47.245Z,33.55
2023-08-20T14:45:13.800Z,33.25
2023-08-20T14:47:40.404Z,33.48
2023-08-20T14:50:07.838Z,33.49
2023-08-20T14:52:35.640Z,33.09
2023-08-20T14:55:02.332Z,33.45
2023-08-20T14:57:40.940Z,32.76
2023-08-20T15:00:13.138Z,32.23
2023-08-20T15:02:39.910Z,32.59
2023-08-20T15:05:06.627Z,32.92
2023-08-20T15:07:33.351Z,32.40
2023-08-20T15:09:59.873Z,33.02
2023-08-20T15:12:26.358Z,33.42
2023-08-20T15:14:52.849Z,33.21
2023-08-20T15:17:19.387Z,33.05
2023-08-20T15:19:45.839Z,33.31
2023-08-20T15:22:14.849Z,33.14
2023-08-20T15:24:41.314Z,33.25
2023-08-20T15:27:07.793Z,32.94
2023-08-20T15:29:34.228Z,33.10
2023-08-20T15:32:01.109Z,33.60
2023-08-20T15:34:28.029Z,33.42
2023-08-20T15:36:54.584Z,33.24
2023-08-20T15:39:21.272Z,33.15
2023-08-20T15:41:47.743Z,33.32
2023-08-20T15:44:14.648Z,33.32
2023-08-20T15:46:41.137Z,32.70
2023-08-20T15:49:07.723Z,33.47
2023-08-20T15:51:34.807Z,32.86
2023-08-20T15:54:01.578Z,32.93
2023-08-20T15:56:28.086Z,33.09
2023-08-20T15:58:54.551Z,33.20
2023-08-20T16:01:21.217Z,32.82
2023-08-20T16:03:47.782Z,32.96
2023-08-20T16:06:14.541Z,32.75
2023-08-20T16:08:41.005Z,32.97
2023-08-20T16:11:07.528Z,32.76
2023-08-20T16:13:34.006Z,33.04
2023-08-20T16:16:01.414Z,32.96
2023-08-20T16:18:27.911Z,32.97
2023-08-20T16:20:54.612Z,32.47
2023-08-20T16:23:21.080Z,32.51
2023-08-20T16:25:47.558Z,31.74
2023-08-20T16:28:14.038Z,30.60
2023-08-20T16:30:40.843Z,29.48
2023-08-20T16:33:08.478Z,30.25
2023-08-20T16:35:35.249Z,30.65
2023-08-20T16:38:01.864Z,30.61
2023-08-20T16:40:28.461Z,28.72
2023-08-20T16:42:55.008Z,27.45
2023-08-20T16:45:21.868Z,27.20
2023-08-20T16:47:48.779Z,26.49
2023-08-20T16:50:15.547Z,25.99
2023-08-20T16:52:42.037Z,26.12
2023-08-20T16:55:08.931Z,25.86
2023-08-20T16:57:35.756Z,25.49
2023-08-20T17:00:02.585Z,25.40
2023-08-20T17:02:29.473Z,25.20
2023-08-20T17:04:56.066Z,25.12
2023-08-20T17:07:22.556Z,24.84
2023-08-20T17:09:49.108Z,24.77
2023-08-20T17:12:16.004Z,24.82
2023-08-20T17:14:42.598Z,24.90
2023-08-20T17:17:09.765Z,24.90
2023-08-20T17:19:36.268Z,24.72
2023-08-20T17:22:02.773Z,24.80
2023-08-20T17:24:29.241Z,24.66
2023-08-20T17:26:55.713Z,24.70
2023-08-20T17:29:22.166Z,24.50
2023-08-20T17:31:48.630Z,24.46
2023-08-20T17:34:15.143Z,24.33
2023-08-20T17:36:41.641Z,24.25
2023-08-20T17:39:08.183Z,24.18
2023-08-20T17:41:34.783Z,24.05
2023-08-20T17:44:01.246Z,24.04
2023-08-20T17:46:42.671Z,23.99
2023-08-20T17:49:09.201Z,23.76
2023-08-20T17:51:37.232Z,23.67
2023-08-20T17:54:04.043Z,23.65
2023-08-20T17:56:30.830Z,23.75
2023-08-20T17:58:57.399Z,23.70
2023-08-20T18:01:23.977Z,23.69
2023-08-20T18:03:50.831Z,23.74
2023-08-20T18:06:17.594Z,23.73
2023-08-20T18:08:46.808Z,23.81
2023-08-20T18:11:13.391Z,23.67
2023-08-20T18:13:40.972Z,23.73
2023-08-20T18:16:07.574Z,23.62
2023-08-20T18:18:34.816Z,23.45
2023-08-20T18:21:01.294Z,23.42
2023-08-20T18:23:27.791Z,23.42
2023-08-20T18:25:54.637Z,23.40
2023-08-20T18:28:21.168Z,23.35
2023-08-20T18:30:51.532Z,23.27
2023-08-20T18:33:19.114Z,23.18
2023-08-20T18:35:45.638Z,23.10
2023-08-20T18:38:17.626Z,22.91
2023-08-20T18:40:44.105Z,22.93
2023-08-20T18:43:10.674Z,22.84
2023-08-20T18:45:37.204Z,22.89
2023-08-20T18:48:03.970Z,22.88
2023-08-20T18:50:30.491Z,22.83
2023-08-20T18:52:57.232Z,22.71
2023-08-20T18:55:23.712Z,22.74
2023-08-20T18:57:50.190Z,22.81
2023-08-20T19:00:16.937Z,22.86
2023-08-20T19:02:43.564Z,22.79
2023-08-20T19:05:11.498Z,22.72
2023-08-20T19:07:37.964Z,22.69
2023-08-20T19:10:04.877Z,22.67
2023-08-20T19:12:31.337Z,22.64
2023-08-20T19:14:57.809Z,22.61
2023-08-20T19:17:24.330Z,22.55
2023-08-20T19:19:50.834Z,22.43
2023-08-20T19:22:17.319Z,22.49
2023-08-20T19:24:43.838Z,22.39
2023-08-20T19:27:10.292Z,22.37
2023-08-20T19:29:36.767Z,22.29
2023-08-20T19:32:03.298Z,22.17
2023-08-20T19:34:31.844Z,22.15
2023-08-20T19:36:58.798Z,22.21
2023-08-20T19:39:25.489Z,22.31
2023-08-20T19:41:52.088Z,22.22
2023-08-20T19:44:18.665Z,22.40
2023-08-20T19:46:45.723Z,22.39
2023-08-20T19:49:12.233Z,22.29
2023-08-20T19:51:39.210Z,22.28
2023-08-20T19:54:06.419Z,22.32
2023-08-20T19:56:32.980Z,22.21
2023-08-20T19:58:59.455Z,22.27
2023-08-20T20:01:27.040Z,22.19
2023-08-20T20:03:53.912Z,22.23
2023-08-20T20:06:23.810Z,22.10
2023-08-20T20:08:50.317Z,22.15
2023-08-20T20:11:17.815Z,22.19
2023-08-20T20:13:44.332Z,22.21
2023-08-20T20:16:10.914Z,22.27
2023-08-20T20:18:37.578Z,22.22
2023-08-20T20:21:04.074Z,22.28
2023-08-20T20:23:30.546Z,22.18
2023-08-20T20:25:57.161Z,22.24
2023-08-20T20:28:23.607Z,22.25
2023-08-20T20:30:50.108Z,22.08
2023-08-20T20:33:16.589Z,22.00
2023-08-20T20:35:43.084Z,22.02
2023-08-20T20:38:09.532Z,21.98
2023-08-20T20:40:36.125Z,21.93
2023-08-20T20:43:02.601Z,21.86
2023-08-20T20:45:29.427Z,21.83
2023-08-20T20:47:55.960Z,21.83
2023-08-20T20:50:22.501Z,21.66
2023-08-20T20:52:48.997Z,21.72
2023-08-20T20:55:15.633Z,21.71
2023-08-20T20:57:42.189Z,21.80
2023-08-20T21:00:09.411Z,21.73
2023-08-20T21:02:36.283Z,21.65
2023-08-20T21:05:03.094Z,21.64
2023-08-20T21:07:29.807Z,21.61
2023-08-20T21:12:23.107Z,21.68
2023-08-20T21:14:49.658Z,21.76
2023-08-20T21:17:16.130Z,21.70
2023-08-20T21:19:42.567Z,21.80
2023-08-20T21:22:13.264Z,21.79
2023-08-20T21:24:40.270Z,21.77
2023-08-20T21:27:07.578Z,21.74
2023-08-20T21:29:38.530Z,21.64
2023-08-20T21:32:05.399Z,21.80
2023-08-20T21:34:32.148Z,21.73
2023-08-20T21:37:00.086Z,21.66
2023-08-20T21:39:26.600Z,21.58
2023-08-20T21:41:53.384Z,21.46
2023-08-20T21:44:20.024Z,21.43
2023-08-20T21:46:46.742Z,21.42
2023-08-20T21:49:13.262Z,21.41
2023-08-20T21:51:40.157Z,21.31
2023-08-20T21:54:06.629Z,21.33
2023-08-20T21:56:35.474Z,21.29
2023-08-20T21:59:04.975Z,21.22
2023-08-20T22:01:31.531Z,21.23
2023-08-20T22:03:58.082Z,21.11
2023-08-20T22:06:24.609Z,21.08
2023-08-20T22:08:51.370Z,21.08
2023-08-20T22:11:17.864Z,20.99
2023-08-20T22:13:44.437Z,20.92
2023-08-20T22:16:10.983Z,20.93
2023-08-20T22:18:37.507Z,20.92
2023-08-20T22:21:04.134Z,20.91
2023-08-20T22:23:31.409Z,20.96
2023-08-20T22:25:57.939Z,20.86
2023-08-20T22:28:24.423Z,20.82
2023-08-20T22:30:50.893Z,20.78
2023-08-20T22:33:17.412Z,20.77
2023-08-20T22:35:50.087Z,20.79
2023-08-20T22:38:16.568Z,20.75
2023-08-20T22:40:43.713Z,20.91
2023-08-20T22:43:10.414Z,20.79
2023-08-20T22:45:37.072Z,20.67
2023-08-20T22:48:03.847Z,20.67
2023-08-20T22:50:30.830Z,20.71
2023-08-20T22:52:57.917Z,20.71
2023-08-20T22:55:25.327Z,20.69
2023-08-20T22:57:52.065Z,20.59
2023-08-20T23:00:18.805Z,20.66
2023-08-20T23:02:48.704Z,20.51
2023-08-20T23:05:15.292Z,20.62
2023-08-20T23:07:41.871Z,20.60
2023-08-20T23:10:08.715Z,20.60
2023-08-20T23:12:35.387Z,20.60
2023-08-20T23:15:02.077Z,20.57
2023-08-20T23:17:28.745Z,20.52
2023-08-20T23:19:55.388Z,20.57
2023-08-20T23:22:21.908Z,20.44
2023-08-20T23:24:48.731Z,20.49
2023-08-20T23:27:15.344Z,20.42
2023-08-20T23:29:41.782Z,20.42
2023-08-20T23:32:08.254Z,20.39
2023-08-20T23:34:34.699Z,20.40
2023-08-20T23:37:01.195Z,20.42
2023-08-20T23:39:27.636Z,20.30
2023-08-20T23:41:54.140Z,20.45
2023-08-20T23:44:20.748Z,20.46
2023-08-20T23:46:48.629Z,20.53
2023-08-20T23:49:15.872Z,20.46
2023-08-20T23:51:42.358Z,20.36
2023-08-20T23:54:08.843Z,20.37
2023-08-20T23:56:35.707Z,20.45
2023-08-20T23:59:02.233Z,20.52
